Aérodrome :
LOGIN :

S'inscrire | Disclaimer

   EN    FR    IT 

 










Légende :    VFR   VFR Marginal   IFR   IFR Intensif   IFR Très Intensif
Visi : 
Plafond : 
>= 8 km
>= 3000ft
5 à 8 km
1000 à 3000 ft
1500m à 5 km
500 à 1000 ft
800 à 1500m
200 à 500 ft
< 800m
< 200 ft
Symboles :   Orages  Brouillard  Fortes neiges  Fortes précipitations  Vent > 20 kt
SIGMETs :   Divers  Orages  Givrage  Turbulence  Onde Orograph.  Cendres Volcan.






- Altitude de l'aérodrome : 3368 ft


LSGC - Les Eplatures

DERNIER METAR :
  • 131350Z 14006KT 110V170 9999 SCT055TCU 22/14 Q1019

METARs EXPIRÉS :
  • 131320Z 16004KT 120V200 9999 -SHRA FEW049TCU 23/14 Q1019
  • 131250Z 18004KT 140V230 9999 FEW049TCU 24/12 Q1019
  • 131220Z 18004KT 090V240 9999 FEW048 23/13 Q1019
  • 131150Z 18005KT 120V230 9999 FEW040 23/14 Q1019
  • 131120Z AUTO 19007KT 140V250 CAVOK 23/12 Q1019

TAF TAF LSGC
Valide du 13 à 12h jusqu'au 13 à 21h UTC


131125Z 1312/1321 VRB03KT 9999 FEW040
PROB40
TEMPO 1312/1318 23010G20KT 4500 TSRA SCT030CB



MET'MAP, la Météo Aéronautique d'un coup d'oeil ! - Copyright ORBIFLY Décembre 2007 - Disclaimer

ORBIFLY MET'MAP TEAM :

Programmation & Développement : Alexandra Zaïnal
Sur une idée originale de : Baudouin d'Aumeries
Assistance à la programmation : Marc-Olivier Méhu
Soutien technique & logistique : Manuel Goepfert

Contact : metmap@orbifly.com




SOURCES & CREDITS :

   NOAA